createdAt,value
2023-01-18T00:01:50.250Z,96254.22
2023-01-18T00:04:23.244Z,96247.16
2023-01-18T00:06:57.313Z,96247.72
2023-01-18T00:09:30.169Z,96248.25
2023-01-18T00:12:02.960Z,96252.09
2023-01-18T00:14:37.175Z,96250.59
2023-01-18T00:17:10.050Z,96251.25
2023-01-18T00:19:42.833Z,96248.63
2023-01-18T00:22:15.646Z,96249.00
2023-01-18T00:24:48.411Z,96250.78
2023-01-18T00:27:21.290Z,96248.53
2023-01-18T00:29:55.359Z,96250.88
2023-01-18T00:32:28.332Z,96248.47
2023-01-18T00:35:04.487Z,96243.03
2023-01-18T00:37:37.973Z,96242.88
2023-01-18T00:40:11.907Z,96240.22
2023-01-18T00:43:02.394Z,96238.72
2023-01-18T00:45:36.569Z,96242.00
2023-01-18T00:48:09.416Z,96239.09
2023-01-18T00:50:42.230Z,96237.91
2023-01-18T00:53:15.005Z,96249.59
2023-01-18T00:55:48.032Z,96253.97
2023-01-18T00:58:20.838Z,96245.34
2023-01-18T01:00:55.516Z,96245.50
2023-01-18T01:03:28.349Z,96246.94
2023-01-18T01:06:18.571Z,96249.44
2023-01-18T01:08:51.510Z,96254.69
2023-01-18T01:11:24.281Z,96253.72
2023-01-18T01:14:14.482Z,96247.38
2023-01-18T01:17:06.222Z,96254.50
2023-01-18T01:19:56.339Z,96259.88
2023-01-18T01:22:46.964Z,96262.66
2023-01-18T01:25:37.231Z,96265.28
2023-01-18T01:28:10.010Z,96274.91
2023-01-18T01:30:44.629Z,96267.53
2023-01-18T01:33:19.392Z,96270.50
2023-01-18T01:35:56.569Z,96273.44
2023-01-18T01:38:30.273Z,96271.25
2023-01-18T01:41:05.670Z,96274.56
2023-01-18T01:43:44.111Z,96271.59
2023-01-18T01:46:39.528Z,96283.81
2023-01-18T01:49:17.009Z,96280.28
2023-01-18T01:51:54.484Z,96274.66
2023-01-18T01:54:31.580Z,96281.19
2023-01-18T01:57:08.222Z,96275.09
2023-01-18T01:59:46.260Z,96280.50
2023-01-18T02:02:19.333Z,96287.91
2023-01-18T02:04:56.004Z,96288.16
2023-01-18T02:07:29.725Z,96300.03
2023-01-18T02:10:04.372Z,96286.75
2023-01-18T02:12:40.768Z,96290.75
2023-01-18T02:15:13.681Z,96296.34
2023-01-18T02:18:02.050Z,96298.91
2023-01-18T02:21:09.273Z,96288.53
2023-01-18T02:24:15.965Z,96297.19
2023-01-18T02:26:58.041Z,96291.56
2023-01-18T02:29:49.229Z,96296.19
2023-01-18T02:32:29.629Z,96294.91
2023-01-18T02:35:08.053Z,96297.03
2023-01-18T02:37:47.173Z,96296.56
2023-01-18T02:40:26.901Z,96297.09
2023-01-18T02:43:20.316Z,96306.22
2023-01-18T02:46:22.673Z,96306.00
2023-01-18T02:48:56.400Z,96294.75
2023-01-18T02:51:29.234Z,96300.97
2023-01-18T02:54:03.533Z,96299.47
2023-01-18T02:56:41.473Z,96310.03
2023-01-18T02:59:19.450Z,96305.13
2023-01-18T03:01:58.283Z,96312.69
2023-01-18T03:04:35.043Z,96311.03
2023-01-18T03:07:14.010Z,96312.19
2023-01-18T03:09:47.337Z,96310.78
2023-01-18T03:12:25.669Z,96302.28
2023-01-18T03:15:08.575Z,96300.34
2023-01-18T03:17:44.963Z,96297.06
2023-01-18T03:20:25.680Z,96295.38
2023-01-18T03:23:21.006Z,96299.88
2023-01-18T03:25:57.540Z,96303.28
2023-01-18T03:28:53.374Z,96294.91
2023-01-18T03:31:51.766Z,96295.59
2023-01-18T03:34:30.659Z,96309.69
2023-01-18T03:37:06.317Z,96307.94
2023-01-18T03:39:43.980Z,96312.78
2023-01-18T03:42:21.466Z,96307.28
2023-01-18T03:44:59.470Z,96311.06
2023-01-18T03:47:32.766Z,96313.13
2023-01-18T03:50:07.723Z,96321.97
2023-01-18T03:52:45.074Z,96322.13
2023-01-18T03:55:24.568Z,96323.75
2023-01-18T03:58:01.969Z,96327.78
2023-01-18T04:00:35.155Z,96327.03
2023-01-18T04:03:08.294Z,96327.81
2023-01-18T04:05:42.545Z,96322.72
2023-01-18T04:08:16.466Z,96322.31
2023-01-18T04:10:49.288Z,96319.56
2023-01-18T04:13:22.121Z,96326.09
2023-01-18T04:15:54.953Z,96331.25
2023-01-18T04:18:27.709Z,96327.81
2023-01-18T04:21:01.984Z,96324.97
2023-01-18T04:23:34.826Z,96328.50
2023-01-18T04:26:07.665Z,96323.00
2023-01-18T04:28:40.396Z,96335.84
2023-01-18T04:31:13.257Z,96336.97
2023-01-18T04:33:46.036Z,96338.50
2023-01-18T04:36:21.059Z,96340.06
2023-01-18T04:38:54.849Z,96341.84
2023-01-18T04:41:27.695Z,96343.84
2023-01-18T04:44:00.637Z,96338.34
2023-01-18T04:46:33.578Z,96337.94
2023-01-18T04:49:06.781Z,96351.56
2023-01-18T04:51:40.965Z,96346.41
2023-01-18T04:54:16.629Z,96350.00
2023-01-18T04:56:49.399Z,96343.91
2023-01-18T04:59:22.183Z,96358.25
2023-01-18T05:01:54.991Z,96353.97
2023-01-18T05:04:27.811Z,96360.56
2023-01-18T05:07:02.656Z,96371.97
2023-01-18T05:09:35.500Z,96375.41
2023-01-18T05:12:08.529Z,96376.84
2023-01-18T05:14:41.427Z,96385.19
2023-01-18T05:17:14.294Z,96387.31
2023-01-18T05:19:47.065Z,96394.25
2023-01-18T05:22:21.360Z,96395.19
2023-01-18T05:24:54.936Z,96400.78
2023-01-18T05:27:27.738Z,96406.09
2023-01-18T05:30:01.958Z,96412.28
2023-01-18T05:32:34.991Z,96415.81
2023-01-18T05:35:08.661Z,96416.75
2023-01-18T05:37:42.933Z,96421.97
2023-01-18T05:40:16.252Z,96429.44
2023-01-18T05:42:49.196Z,96428.06
2023-01-18T05:45:22.228Z,96425.41
2023-01-18T05:47:55.745Z,96436.84
2023-01-18T05:50:28.611Z,96432.97
2023-01-18T05:53:03.348Z,96438.13
2023-01-18T05:55:36.452Z,96436.94
2023-01-18T05:58:09.487Z,96435.63
2023-01-18T06:00:42.275Z,96443.84
2023-01-18T06:03:15.066Z,96444.38
2023-01-18T06:05:48.464Z,96457.31
2023-01-18T06:08:22.973Z,96458.50
2023-01-18T06:10:57.417Z,96461.38
2023-01-18T06:13:32.880Z,96466.00
2023-01-18T06:16:06.377Z,96468.16
2023-01-18T06:18:39.926Z,96472.56
2023-01-18T06:21:13.021Z,96477.91
2023-01-18T06:23:47.117Z,96472.53
2023-01-18T06:26:19.960Z,96481.84
2023-01-18T06:28:53.525Z,96486.16
2023-01-18T06:31:26.374Z,96497.59
2023-01-18T06:33:59.302Z,96494.00
2023-01-18T06:36:32.993Z,96500.41
2023-01-18T06:39:08.036Z,96503.78
2023-01-18T06:41:40.878Z,96508.72
2023-01-18T06:44:13.861Z,96502.56
2023-01-18T06:46:47.071Z,96510.13
2023-01-18T06:49:19.838Z,96519.59
2023-01-18T06:51:53.030Z,96516.44
2023-01-18T06:54:27.196Z,96526.22
2023-01-18T06:56:59.972Z,96532.06
2023-01-18T06:59:32.784Z,96531.00
2023-01-18T07:02:05.833Z,96535.78
2023-01-18T07:04:44.160Z,96534.53
2023-01-18T07:07:17.199Z,96548.78
2023-01-18T07:09:51.379Z,96542.84
2023-01-18T07:12:24.149Z,96549.78
2023-01-18T07:14:57.539Z,96546.91
2023-01-18T07:17:30.252Z,96557.38
2023-01-18T07:20:03.127Z,96564.78
2023-01-18T07:22:35.872Z,96565.22
2023-01-18T07:25:13.318Z,96573.50
2023-01-18T07:27:46.223Z,96571.00
2023-01-18T07:30:19.482Z,96574.84
2023-01-18T07:32:53.752Z,96577.94
2023-01-18T07:35:27.512Z,96583.09
2023-01-18T07:38:00.275Z,96588.22
2023-01-18T07:40:35.440Z,96585.34
2023-01-18T07:43:08.183Z,96594.94
2023-01-18T07:45:40.953Z,96596.31
2023-01-18T07:48:13.810Z,96604.53
2023-01-18T07:50:53.831Z,96604.16
2023-01-18T07:53:28.081Z,96607.47
2023-01-18T07:56:03.407Z,96621.91
2023-01-18T07:58:36.794Z,96623.25
2023-01-18T08:01:12.462Z,96636.25
2023-01-18T08:03:47.938Z,96640.91
2023-01-18T08:06:22.335Z,96642.03
2023-01-18T08:08:56.370Z,96656.59
2023-01-18T08:11:31.455Z,96660.47
2023-01-18T08:14:04.195Z,96663.22
2023-01-18T08:16:36.916Z,96656.75
2023-01-18T08:19:09.880Z,96663.72
2023-01-18T08:21:42.670Z,96665.00
2023-01-18T08:24:15.560Z,96669.75
2023-01-18T08:26:49.649Z,96672.03
2023-01-18T08:29:22.348Z,96680.59
2023-01-18T08:31:55.278Z,96689.41
2023-01-18T08:34:28.045Z,96687.47
2023-01-18T08:37:00.810Z,96693.00
2023-01-18T08:39:33.590Z,96688.84
2023-01-18T08:42:07.848Z,96694.97
2023-01-18T08:44:40.605Z,96704.63
2023-01-18T08:47:13.652Z,96712.34
2023-01-18T08:49:46.676Z,96725.56
2023-01-18T08:52:19.369Z,96725.19
2023-01-18T08:54:52.491Z,96725.41
2023-01-18T08:57:28.497Z,96731.75
2023-01-18T09:00:04.590Z,96744.53
2023-01-18T09:02:37.444Z,96738.56
2023-01-18T09:05:10.707Z,96743.34
2023-01-18T09:07:44.662Z,96747.94
2023-01-18T09:10:18.442Z,96746.94
2023-01-18T09:12:53.745Z,96759.75
2023-01-18T09:15:27.056Z,96761.75
2023-01-18T09:18:05.097Z,96767.72
2023-01-18T09:20:37.837Z,96765.81
2023-01-18T09:23:11.217Z,96778.72
2023-01-18T09:25:43.988Z,96780.06
2023-01-18T09:28:18.094Z,96778.22
2023-01-18T09:30:50.930Z,96783.09
2023-01-18T09:33:27.392Z,96797.22
2023-01-18T09:36:05.388Z,96796.19
2023-01-18T09:38:39.282Z,96804.09
2023-01-18T09:41:26.783Z,96810.41
2023-01-18T09:44:03.442Z,96821.00
2023-01-18T09:46:39.385Z,96819.72
2023-01-18T09:49:19.657Z,96826.28
2023-01-18T09:52:04.271Z,96829.75
2023-01-18T09:54:43.922Z,96833.66
2023-01-18T09:57:31.193Z,96834.03
2023-01-18T10:00:19.420Z,96833.31
2023-01-18T10:02:55.462Z,96842.28
2023-01-18T10:05:31.960Z,96846.78
2023-01-18T10:08:08.066Z,96853.75
2023-01-18T10:10:46.213Z,96857.81
2023-01-18T10:13:39.457Z,96853.41
2023-01-18T10:16:15.386Z,96864.53
2023-01-18T10:18:51.558Z,96865.28
2023-01-18T10:21:32.991Z,96872.44
2023-01-18T10:24:19.245Z,96870.47
2023-01-18T10:26:59.495Z,96866.31
2023-01-18T10:29:46.223Z,96865.88
2023-01-18T10:32:24.276Z,96859.25
2023-01-18T10:34:58.795Z,96874.38
2023-01-18T10:37:40.213Z,96873.34
2023-01-18T10:40:14.728Z,96882.06
2023-01-18T10:42:49.660Z,96880.38
2023-01-18T10:45:25.322Z,96884.56
2023-01-18T10:48:14.267Z,96890.19
2023-01-18T10:50:52.320Z,96900.09
2023-01-18T10:53:31.443Z,96913.03
2023-01-18T10:56:07.875Z,96917.06
2023-01-18T10:58:45.276Z,96910.59
2023-01-18T11:01:21.234Z,96925.00
2023-01-18T11:04:06.066Z,96931.09
2023-01-18T11:06:47.140Z,96929.13
2023-01-18T11:09:41.771Z,96939.41
2023-01-18T11:12:37.110Z,96941.13
2023-01-18T11:15:29.984Z,96946.09
2023-01-18T11:18:06.614Z,96949.34
2023-01-18T11:20:50.191Z,96957.00
2023-01-18T11:23:26.428Z,96953.50
2023-01-18T11:26:01.775Z,96961.78
2023-01-18T11:28:45.292Z,96959.66
2023-01-18T11:31:22.341Z,96956.50
2023-01-18T11:33:57.615Z,96975.31
2023-01-18T11:36:40.380Z,96974.56
2023-01-18T11:39:32.409Z,96978.09
2023-01-18T11:42:18.669Z,96979.34
2023-01-18T11:45:05.475Z,96988.41
2023-01-18T11:47:50.596Z,96991.91
2023-01-18T11:50:35.358Z,96992.47
2023-01-18T11:53:22.343Z,96989.09
2023-01-18T11:56:06.057Z,96992.78
2023-01-18T11:58:39.174Z,96991.47
2023-01-18T12:10:34.644Z,97012.66
2023-01-18T12:13:23.016Z,97013.44
2023-01-18T12:16:05.492Z,97018.84
2023-01-18T12:19:01.405Z,97015.34
2023-01-18T12:21:46.223Z,97034.66
2023-01-18T12:24:35.868Z,97033.59
2023-01-18T12:27:20.209Z,97030.81
2023-01-18T12:30:09.762Z,97033.91
2023-01-18T12:33:02.181Z,97029.03
2023-01-18T12:36:09.428Z,97042.75
2023-01-18T12:38:49.736Z,97046.41
2023-01-18T12:41:37.711Z,97056.19
2023-01-18T12:44:28.714Z,97053.41
2023-01-18T12:47:12.603Z,97053.72
2023-01-18T12:49:49.308Z,97060.16
2023-01-18T12:52:23.562Z,97055.50
2023-01-18T12:55:04.292Z,97069.91
2023-01-18T12:57:37.512Z,97062.28
2023-01-18T13:00:21.160Z,97071.44
2023-01-18T13:02:57.711Z,97074.59
2023-01-18T13:05:38.492Z,97077.31
2023-01-18T13:08:15.065Z,97075.19
2023-01-18T13:10:49.672Z,97089.31
2023-01-18T13:13:27.628Z,97097.50
2023-01-18T13:16:10.978Z,97106.13
2023-01-18T13:18:51.894Z,97109.03
2023-01-18T13:21:36.898Z,97114.59
2023-01-18T13:24:23.884Z,97118.38
2023-01-18T13:27:08.882Z,97121.63
2023-01-18T13:29:43.954Z,97130.47
2023-01-18T13:32:36.230Z,97136.56
2023-01-18T13:35:20.960Z,97135.22
2023-01-18T13:37:58.213Z,97144.66
2023-01-18T13:40:38.754Z,97148.84
2023-01-18T13:43:33.922Z,97152.47
2023-01-18T13:46:21.458Z,97174.31
2023-01-18T13:48:57.559Z,97171.56
2023-01-18T13:51:54.035Z,97184.13
2023-01-18T13:55:01.058Z,97193.53
2023-01-18T13:57:35.750Z,97198.44
2023-01-18T14:00:25.060Z,97190.78
2023-01-18T14:03:05.015Z,97195.16
2023-01-18T14:05:45.126Z,97210.03
2023-01-18T14:08:24.904Z,97209.59
2023-01-18T14:11:03.558Z,97224.16
2023-01-18T14:14:03.161Z,97225.72
2023-01-18T14:16:39.919Z,97227.81
2023-01-18T14:19:18.425Z,97238.50
2023-01-18T14:22:24.395Z,97243.44
2023-01-18T14:25:17.446Z,97257.44
2023-01-18T14:28:01.274Z,97254.41
2023-01-18T14:30:37.135Z,97269.78
2023-01-18T14:33:16.747Z,97265.28
2023-01-18T14:35:54.340Z,97276.19
2023-01-18T14:38:30.606Z,97284.22
2023-01-18T14:41:09.075Z,97288.16
2023-01-18T14:43:45.517Z,97296.16
2023-01-18T14:46:29.014Z,97296.16
2023-01-18T14:49:03.364Z,97304.06
2023-01-18T14:51:37.299Z,97309.19
2023-01-18T14:54:18.441Z,97315.75
2023-01-18T14:57:02.316Z,97325.13
2023-01-18T14:59:36.557Z,97314.16
2023-01-18T15:07:07.749Z,97331.09
2023-01-18T15:09:50.231Z,97338.13
2023-01-18T15:12:32.562Z,97349.88
2023-01-18T19:50:25.902Z,97790.28
2023-01-18T19:53:01.439Z,97792.47
2023-01-18T19:55:36.619Z,97791.63
2023-01-18T19:58:13.392Z,97797.50
2023-01-18T20:00:47.218Z,97809.38
2023-01-18T20:03:20.839Z,97817.72
2023-01-18T20:05:56.840Z,97818.81
2023-01-18T20:08:31.571Z,97821.50
2023-01-18T20:11:06.239Z,97835.19
2023-01-18T20:13:42.194Z,97834.09
2023-01-18T20:16:15.589Z,97836.69
2023-01-18T20:18:49.914Z,97832.59
2023-01-18T20:21:23.502Z,97843.97
2023-01-18T20:23:58.770Z,97845.16
2023-01-18T20:26:36.981Z,97840.75
2023-01-18T20:29:11.648Z,97850.16
2023-01-18T20:31:50.022Z,97840.72
2023-01-18T20:34:23.558Z,97838.56
2023-01-18T20:36:57.035Z,97847.75
2023-01-18T20:39:31.865Z,97848.34
2023-01-18T20:42:05.367Z,97847.41
2023-01-18T20:44:38.813Z,97862.31
2023-01-18T20:47:12.347Z,97869.22
2023-01-18T20:49:45.928Z,97860.97
2023-01-18T20:52:19.091Z,97872.94
2023-01-18T20:54:56.586Z,97885.59
2023-01-18T20:57:31.683Z,97881.22
2023-01-18T21:00:05.537Z,97886.59
2023-01-18T21:02:38.580Z,97884.13
2023-01-18T21:05:11.968Z,97893.13
2023-01-18T21:07:44.907Z,97895.22
2023-01-18T21:10:19.753Z,97900.75
2023-01-18T21:12:52.896Z,97895.66
2023-01-18T21:15:26.425Z,97901.75
2023-01-18T21:18:01.015Z,97897.53
2023-01-18T21:20:35.848Z,97904.78
2023-01-18T21:23:09.839Z,97910.50
2023-01-18T21:25:50.196Z,97909.31
2023-01-18T21:28:22.966Z,97910.09
2023-01-18T21:30:57.229Z,97912.81
2023-01-18T21:33:30.142Z,97924.56
2023-01-18T21:36:05.173Z,97919.41
2023-01-18T21:38:37.992Z,97924.19
2023-01-18T21:41:30.133Z,97922.94
2023-01-18T21:44:20.627Z,97933.75
2023-01-18T21:46:53.815Z,97937.03
2023-01-18T21:50:11.405Z,97942.16
2023-01-18T21:52:55.839Z,97941.28
2023-01-18T21:55:28.839Z,97946.97
2023-01-18T21:58:20.647Z,97945.88
2023-01-18T22:00:53.606Z,97951.13
2023-01-18T22:03:26.492Z,97948.81
2023-01-18T22:06:02.255Z,97956.81
2023-01-18T22:08:35.380Z,97956.47
2023-01-18T22:11:08.169Z,97971.16
2023-01-18T22:13:42.412Z,97973.41
2023-01-18T22:16:15.320Z,97974.50
2023-01-18T22:18:50.018Z,97990.19
2023-01-18T22:21:25.274Z,97990.66
2023-01-18T22:23:58.155Z,97984.16
2023-01-18T22:26:32.112Z,97990.91
2023-01-18T22:29:06.494Z,97989.56
2023-01-18T22:31:39.606Z,97991.47
2023-01-18T22:34:18.556Z,97993.09
2023-01-18T22:36:51.466Z,98001.69
2023-01-18T22:39:24.274Z,98005.91
2023-01-18T22:41:57.177Z,98002.56
2023-01-18T22:44:32.743Z,98008.69
2023-01-18T22:47:05.668Z,98008.63
2023-01-18T22:49:38.459Z,98015.03
2023-01-18T22:52:11.245Z,98014.75
2023-01-18T22:54:44.077Z,98017.13
2023-01-18T22:57:16.877Z,98030.72
2023-01-18T22:59:51.306Z,98022.66
2023-01-18T23:02:24.192Z,98025.91
2023-01-18T23:04:57.043Z,98032.84
2023-01-18T23:07:29.858Z,98028.56
2023-01-18T23:10:02.748Z,98027.94
2023-01-18T23:12:35.562Z,98036.09
2023-01-18T23:15:28.956Z,98028.22
2023-01-18T23:18:02.059Z,98031.25
2023-01-18T23:20:35.093Z,98035.22
2023-01-18T23:23:07.850Z,98036.94
2023-01-18T23:25:40.651Z,98034.31
2023-01-18T23:28:13.470Z,98026.31
2023-01-18T23:30:47.614Z,98034.31
2023-01-18T23:33:20.509Z,98042.31
2023-01-18T23:35:53.308Z,98037.91
2023-01-18T23:38:26.085Z,98045.13
2023-01-18T23:41:16.649Z,98049.19
2023-01-18T23:44:06.923Z,98049.69
2023-01-18T23:46:58.607Z,98049.06
2023-01-18T23:49:48.962Z,98047.59
2023-01-18T23:52:39.216Z,98055.22
2023-01-18T23:55:12.138Z,98053.53
2023-01-18T23:57:44.916Z,98051.63
